Pagrindinis puslapis
METAR-TAF:

METAR-TAF

Oro uostai :

Gracas, Austrija

platuma: 47-00N, ilguma: 015-26E, Aukštis: 340 m

Dabartinis oras

Ataskaita buvo paskelbta 37 minutes, ne 01:20 UTC
Vėjas 1 kt nuo kintamojo kryptimis
Temperatūra 13°C
Drėgmė 94%
Slėgis 1011 hPa
Matomumas 10 km arba daugiau

METAR: LOWG 200120Z AUTO VRB01KT 9999 NSC 13/12 Q1011

Laikas: 03:57 (01:57 UTC)

Prognozė

Ataskaita buvo paskelbta 2 valandos ir 42 minutes, ne 23:15 UTC
Prognozė galioja nuo 20 metu 00 UTC su 20 metu 24 UTC
Vėjas 3 kt nuo kintamojo kryptimis
Matomumas 10 km arba daugiau
Mažai debesys ne aukštis 6000 ft
Tikimybė 30% :
Laikinai
nuo 20 metu 03 UTC su 20 metu 06 UTC
Sekli rūkas
Tapsmas
nuo 20 metu 10 UTC su 20 metu 12 UTC
Vėjas 12 kt iš Pietų/Pietryčių
Tapsmas
nuo 20 metu 17 UTC su 20 metu 19 UTC
Vėjas 4 kt nuo kintamojo kryptimis

TAF: LOWG 192315Z 2000/2024 VRB03KT 9999 FEW060 TX24/2013Z TN12/2003Z PROB30 TEMPO 2003/2006 MIFG BECMG 2010/2012 15012KT BECMG 2017/2019 VRB04KT

Orai ataskaitas ir orų prognozės (METAR, TAF).

turimą stotys yra geltonos ir raudonos taškus žemėlapyje.

Perkelti pele per norėdami pamatyti stoties vardą.

Tada spustelėkite, norėdami matyti oro stebėjimo ir prognozės.

Norėdami pakeisti žemėlapį: spustelėkite ant žalios mygtukų su juodo kryžiaus žemyn,; žalią mygtuką su brūkšneliu, jei norite nutolinti; arba žalių rodyklių gretimoms žemėlapius.


METAR-TAF: